Red Oak, VA (23964)

2:18 AM EDT on September 20, 2014 (GMT -0400)
Scottsburg, VA | Change Station
CLOSE
Current Station
Personal Weather Station
Location: Scottsburg, VA
Elevation: 348 ft
Nearby Weather Stations

Elev 348 ft 36.70 °N, 78.66 °W | Updated 13 minutes ago

Overcast
Overcast
65.1 °F
Feels Like 65.1 °F
N
4.0
Wind Variable Wind from ENE
Gusts 6.0 mph

Today
High -- | Low -- °F
--% Chance of Precip.
Yesterday
High -- | Low -- °F
Precip. -- in
7:00 AM 7:14 PM
Waning Crescent, 14% visible
Pressure 30.25 in
Visibility 10.0 miles
Clouds Scattered Clouds 10000 ft
Dew Point 62 °F
Humidity 89%
Rainfall 0.00 in
Snow Depth Not available.
UV 0 out of 12
Pollen 5.60 out of 12
Air Quality Not available.
Flu Activity Not available.
METAR KHNZ 200555Z AUTO 00000KT 10SM SCT100 16/14 A3025 RMK AO2 T01620137 10191 20162 402460156

More Conditions Fewer Conditions

Pressure 30.25 in
Visibility 10.0 miles
Clouds Scattered Clouds 10000 ft
Dew Point 62 °F
Humidity 89%
Rainfall 0.00 in
Snow Depth Not available.
UV 0 out of 12
Pollen 5.60 out of 12
Air Quality Not available.
Flu Activity Not available.
METAR KHNZ 200555Z AUTO 00000KT 10SM SCT100 16/14 A3025 RMK AO2 T01620137 10191 20162 402460156

More Conditions Fewer Conditions

10-Day Weather Forecast

Almanac

Astronomy

Sep. 20, 2014 Rise Set
Actual Time 7:00 AM EDT 7:14 PM EDT
Civil Twilight 6:34 AM EDT 7:40 PM EDT
Nautical Twilight 6:04 AM EDT 8:10 PM EDT
Astronomical Twilight 5:33 AM EDT 8:41 PM EDT
Moon 3:42 AM EDT 5:13 PM EDT
Length of Visible Light 13h 05m
Length of Day
12h 13m
Tomorrow will be 2m 20s shorter.
Waning Crescent, 14% of the Moon is Illuminated
Today
Waning Crescent
Sep 24
New
Oct 1
First Quarter
Oct 8
Full
Oct 15
Last Quarter

Today's Extremes

State Highs State Lows

Community

WunderPhotos

Upload Photos

1,754,777 photos uploaded!

WunderBlogs® & News

Nearby

Snow Depth

Station Depth Elevation
No new snow has been reported.

Earthquake Activity

City Distance Mag. Time & Date
No recent earthquake activity has been reported nearby.
Minimum magnitude displayed is 2.5.

Coastal Water Temperatures

Place Temperature
No Stations Reporting

Nearby Weather Stations